sensor_id;sensor_type;location;lat;lon;timestamp;temperature;humidity
5492;DHT22;2768;53.540;10.224;2022-11-20T00:00:45;4.10;99.90
5492;DHT22;2768;53.540;10.224;2022-11-20T00:06:38;4.10;99.90
5492;DHT22;2768;53.540;10.224;2022-11-20T00:12:33;4.20;99.90
5492;DHT22;2768;53.540;10.224;2022-11-20T00:18:26;4.20;99.90
5492;DHT22;2768;53.540;10.224;2022-11-20T00:24:20;4.20;99.90
5492;DHT22;2768;53.540;10.224;2022-11-20T00:30:15;4.20;99.90
5492;DHT22;2768;53.540;10.224;2022-11-20T00:36:09;4.30;99.90
5492;DHT22;2768;53.540;10.224;2022-11-20T00:42:03;4.40;99.90
5492;DHT22;2768;53.540;10.224;2022-11-20T00:47:58;4.30;99.90
5492;DHT22;2768;53.540;10.224;2022-11-20T00:53:54;4.20;99.90
5492;DHT22;2768;53.540;10.224;2022-11-20T00:59:47;4.30;99.90
5492;DHT22;2768;53.540;10.224;2022-11-20T01:05:42;4.20;99.90
5492;DHT22;2768;53.540;10.224;2022-11-20T01:11:37;4.20;99.90
5492;DHT22;2768;53.540;10.224;2022-11-20T01:17:32;4.30;99.90
5492;DHT22;2768;53.540;10.224;2022-11-20T01:23:26;4.30;99.90
5492;DHT22;2768;53.540;10.224;2022-11-20T01:29:21;4.30;99.90
5492;DHT22;2768;53.540;10.224;2022-11-20T01:35:16;4.30;99.90
5492;DHT22;2768;53.540;10.224;2022-11-20T01:41:11;4.30;99.90
5492;DHT22;2768;53.540;10.224;2022-11-20T01:47:31;4.30;99.90
5492;DHT22;2768;53.540;10.224;2022-11-20T01:53:29;4.20;99.90
5492;DHT22;2768;53.540;10.224;2022-11-20T01:59:26;4.00;99.90
5492;DHT22;2768;53.540;10.224;2022-11-20T02:05:24;3.90;99.90
5492;DHT22;2768;53.540;10.224;2022-11-20T02:11:18;3.90;99.90
5492;DHT22;2768;53.540;10.224;2022-11-20T02:17:13;3.80;99.90
5492;DHT22;2768;53.540;10.224;2022-11-20T02:23:12;3.90;99.90
5492;DHT22;2768;53.540;10.224;2022-11-20T02:29:07;3.90;99.90
5492;DHT22;2768;53.540;10.224;2022-11-20T02:35:07;3.90;99.90
5492;DHT22;2768;53.540;10.224;2022-11-20T02:41:00;3.90;99.90
5492;DHT22;2768;53.540;10.224;2022-11-20T02:46:57;4.10;99.90
5492;DHT22;2768;53.540;10.224;2022-11-20T02:52:50;4.00;99.90
5492;DHT22;2768;53.540;10.224;2022-11-20T02:58:44;4.10;99.90
5492;DHT22;2768;53.540;10.224;2022-11-20T03:04:39;4.00;99.90
5492;DHT22;2768;53.540;10.224;2022-11-20T03:10:32;4.10;99.90
5492;DHT22;2768;53.540;10.224;2022-11-20T03:16:26;4.10;99.90
5492;DHT22;2768;53.540;10.224;2022-11-20T03:22:21;3.90;99.90
5492;DHT22;2768;53.540;10.224;2022-11-20T03:28:14;4.00;99.90
5492;DHT22;2768;53.540;10.224;2022-11-20T03:34:08;3.90;99.90
5492;DHT22;2768;53.540;10.224;2022-11-20T03:40:04;4.00;99.90
5492;DHT22;2768;53.540;10.224;2022-11-20T03:45:58;4.10;99.90
5492;DHT22;2768;53.540;10.224;2022-11-20T03:51:52;4.10;99.90
5492;DHT22;2768;53.540;10.224;2022-11-20T03:57:46;3.90;99.90
5492;DHT22;2768;53.540;10.224;2022-11-20T04:03:41;3.90;99.90
5492;DHT22;2768;53.540;10.224;2022-11-20T04:09:35;3.90;99.90
5492;DHT22;2768;53.540;10.224;2022-11-20T04:15:29;4.00;99.90
5492;DHT22;2768;53.540;10.224;2022-11-20T04:21:29;4.10;99.90
5492;DHT22;2768;53.540;10.224;2022-11-20T04:27:22;4.20;99.90
5492;DHT22;2768;53.540;10.224;2022-11-20T04:33:17;4.10;99.90
5492;DHT22;2768;53.540;10.224;2022-11-20T04:39:14;4.10;99.90
5492;DHT22;2768;53.540;10.224;2022-11-20T04:45:09;4.10;99.90
5492;DHT22;2768;53.540;10.224;2022-11-20T04:51:05;4.10;99.90
5492;DHT22;2768;53.540;10.224;2022-11-20T04:56:58;4.20;99.90
5492;DHT22;2768;53.540;10.224;2022-11-20T05:02:52;4.20;99.90
5492;DHT22;2768;53.540;10.224;2022-11-20T05:08:47;4.20;99.90
5492;DHT22;2768;53.540;10.224;2022-11-20T05:14:40;4.20;99.90
5492;DHT22;2768;53.540;10.224;2022-11-20T05:20:34;4.10;99.90
5492;DHT22;2768;53.540;10.224;2022-11-20T05:26:30;4.00;99.90
5492;DHT22;2768;53.540;10.224;2022-11-20T05:32:23;4.00;99.90
5492;DHT22;2768;53.540;10.224;2022-11-20T05:38:17;3.90;99.90
5492;DHT22;2768;53.540;10.224;2022-11-20T05:44:12;3.80;99.90
5492;DHT22;2768;53.540;10.224;2022-11-20T05:50:06;3.80;99.90
5492;DHT22;2768;53.540;10.224;2022-11-20T05:56:00;3.60;99.90
5492;DHT22;2768;53.540;10.224;2022-11-20T06:01:55;3.60;99.90
5492;DHT22;2768;53.540;10.224;2022-11-20T06:07:48;3.50;99.90
5492;DHT22;2768;53.540;10.224;2022-11-20T06:13:41;3.50;99.90
5492;DHT22;2768;53.540;10.224;2022-11-20T06:19:36;3.40;99.90
5492;DHT22;2768;53.540;10.224;2022-11-20T06:25:29;3.50;99.90
5492;DHT22;2768;53.540;10.224;2022-11-20T06:31:24;3.40;99.90
5492;DHT22;2768;53.540;10.224;2022-11-20T06:37:19;3.50;99.90
5492;DHT22;2768;53.540;10.224;2022-11-20T06:43:12;3.50;99.90
5492;DHT22;2768;53.540;10.224;2022-11-20T06:49:06;3.60;99.90
5492;DHT22;2768;53.540;10.224;2022-11-20T06:55:00;3.60;99.90
5492;DHT22;2768;53.540;10.224;2022-11-20T07:00:54;3.50;99.90
5492;DHT22;2768;53.540;10.224;2022-11-20T07:06:50;3.70;99.90
5492;DHT22;2768;53.540;10.224;2022-11-20T07:12:50;3.80;99.90
5492;DHT22;2768;53.540;10.224;2022-11-20T07:18:44;3.90;99.90
5492;DHT22;2768;53.540;10.224;2022-11-20T07:24:41;3.90;99.90
5492;DHT22;2768;53.540;10.224;2022-11-20T07:30:38;4.10;99.90
5492;DHT22;2768;53.540;10.224;2022-11-20T07:36:31;4.10;99.90
5492;DHT22;2768;53.540;10.224;2022-11-20T07:42:24;4.20;99.90
5492;DHT22;2768;53.540;10.224;2022-11-20T07:48:19;4.20;99.90
5492;DHT22;2768;53.540;10.224;2022-11-20T07:54:12;4.20;99.90
5492;DHT22;2768;53.540;10.224;2022-11-20T08:00:08;4.20;99.90
5492;DHT22;2768;53.540;10.224;2022-11-20T08:06:06;4.20;99.90
5492;DHT22;2768;53.540;10.224;2022-11-20T08:11:59;4.20;99.90
5492;DHT22;2768;53.540;10.224;2022-11-20T08:18:11;4.30;99.90
5492;DHT22;2768;53.540;10.224;2022-11-20T08:24:26;4.30;99.90
5492;DHT22;2768;53.540;10.224;2022-11-20T08:30:19;4.30;99.90
5492;DHT22;2768;53.540;10.224;2022-11-20T08:36:13;4.20;99.90
5492;DHT22;2768;53.540;10.224;2022-11-20T08:42:08;4.10;99.90
5492;DHT22;2768;53.540;10.224;2022-11-20T08:48:02;4.00;99.90
5492;DHT22;2768;53.540;10.224;2022-11-20T08:53:58;4.20;99.90
5492;DHT22;2768;53.540;10.224;2022-11-20T08:59:53;4.20;99.90
5492;DHT22;2768;53.540;10.224;2022-11-20T09:06:03;4.30;99.90
5492;DHT22;2768;53.540;10.224;2022-11-20T09:11:57;4.20;99.90
5492;DHT22;2768;53.540;10.224;2022-11-20T09:17:52;4.10;99.90
5492;DHT22;2768;53.540;10.224;2022-11-20T09:23:45;3.90;99.90
5492;DHT22;2768;53.540;10.224;2022-11-20T09:29:39;4.00;99.90
5492;DHT22;2768;53.540;10.224;2022-11-20T09:35:34;4.00;99.90
5492;DHT22;2768;53.540;10.224;2022-11-20T09:41:55;4.20;99.90
5492;DHT22;2768;53.540;10.224;2022-11-20T09:48:10;4.20;99.90
5492;DHT22;2768;53.540;10.224;2022-11-20T09:54:15;4.30;99.90
5492;DHT22;2768;53.540;10.224;2022-11-20T10:00:11;4.40;99.90
5492;DHT22;2768;53.540;10.224;2022-11-20T10:06:07;4.50;99.90
5492;DHT22;2768;53.540;10.224;2022-11-20T10:12:14;4.50;99.90
5492;DHT22;2768;53.540;10.224;2022-11-20T10:18:23;4.50;99.90
5492;DHT22;2768;53.540;10.224;2022-11-20T10:24:38;4.30;99.90
5492;DHT22;2768;53.540;10.224;2022-11-20T10:30:38;4.20;99.90
5492;DHT22;2768;53.540;10.224;2022-11-20T10:36:36;4.10;99.90
5492;DHT22;2768;53.540;10.224;2022-11-20T10:42:36;4.20;99.90
5492;DHT22;2768;53.540;10.224;2022-11-20T10:48:32;4.30;99.90
5492;DHT22;2768;53.540;10.224;2022-11-20T10:54:33;4.30;99.90
5492;DHT22;2768;53.540;10.224;2022-11-20T11:00:31;4.20;99.90
5492;DHT22;2768;53.540;10.224;2022-11-20T11:06:33;4.30;99.90
5492;DHT22;2768;53.540;10.224;2022-11-20T11:12:29;4.40;99.90
5492;DHT22;2768;53.540;10.224;2022-11-20T11:18:24;4.50;99.90
5492;DHT22;2768;53.540;10.224;2022-11-20T11:24:21;4.50;99.90
5492;DHT22;2768;53.540;10.224;2022-11-20T11:30:42;4.60;99.90
5492;DHT22;2768;53.540;10.224;2022-11-20T11:36:36;4.60;99.90
5492;DHT22;2768;53.540;10.224;2022-11-20T11:42:31;4.60;99.90
5492;DHT22;2768;53.540;10.224;2022-11-20T11:48:25;4.70;99.90
5492;DHT22;2768;53.540;10.224;2022-11-20T11:54:23;4.90;99.90
5492;DHT22;2768;53.540;10.224;2022-11-20T12:00:20;4.90;99.90
5492;DHT22;2768;53.540;10.224;2022-11-20T12:06:15;4.90;99.90
5492;DHT22;2768;53.540;10.224;2022-11-20T12:12:12;4.90;99.90
5492;DHT22;2768;53.540;10.224;2022-11-20T12:18:15;4.80;99.90
5492;DHT22;2768;53.540;10.224;2022-11-20T12:24:31;4.70;99.90
5492;DHT22;2768;53.540;10.224;2022-11-20T12:30:26;4.80;99.90
5492;DHT22;2768;53.540;10.224;2022-11-20T12:36:30;4.80;99.90
5492;DHT22;2768;53.540;10.224;2022-11-20T12:42:44;4.80;99.90
5492;DHT22;2768;53.540;10.224;2022-11-20T12:49:07;4.90;99.90
5492;DHT22;2768;53.540;10.224;2022-11-20T12:55:16;4.80;99.90
5492;DHT22;2768;53.540;10.224;2022-11-20T13:01:23;4.80;99.90
5492;DHT22;2768;53.540;10.224;2022-11-20T13:07:32;4.80;99.90
5492;DHT22;2768;53.540;10.224;2022-11-20T13:13:33;4.90;99.90
5492;DHT22;2768;53.540;10.224;2022-11-20T13:19:29;4.90;99.90
5492;DHT22;2768;53.540;10.224;2022-11-20T13:25:24;4.90;99.90
5492;DHT22;2768;53.540;10.224;2022-11-20T13:31:30;5.10;99.90
5492;DHT22;2768;53.540;10.224;2022-11-20T13:37:27;5.20;99.90
5492;DHT22;2768;53.540;10.224;2022-11-20T13:43:32;5.30;99.90
5492;DHT22;2768;53.540;10.224;2022-11-20T13:49:32;5.30;99.90
5492;DHT22;2768;53.540;10.224;2022-11-20T13:55:31;5.20;99.90
5492;DHT22;2768;53.540;10.224;2022-11-20T14:01:29;5.20;96.70
5492;DHT22;2768;53.540;10.224;2022-11-20T14:07:31;5.10;95.80
5492;DHT22;2768;53.540;10.224;2022-11-20T14:13:25;5.10;95.80
5492;DHT22;2768;53.540;10.224;2022-11-20T14:19:36;5.00;94.90
5492;DHT22;2768;53.540;10.224;2022-11-20T14:25:33;5.10;96.70
5492;DHT22;2768;53.540;10.224;2022-11-20T14:31:27;5.00;95.00
5492;DHT22;2768;53.540;10.224;2022-11-20T14:37:24;5.00;95.10
5492;DHT22;2768;53.540;10.224;2022-11-20T14:43:22;5.00;94.10
5492;DHT22;2768;53.540;10.224;2022-11-20T14:49:16;4.90;93.00
5492;DHT22;2768;53.540;10.224;2022-11-20T14:55:14;4.90;94.20
5492;DHT22;2768;53.540;10.224;2022-11-20T15:01:25;4.90;94.80
5492;DHT22;2768;53.540;10.224;2022-11-20T15:07:26;5.00;97.00
5492;DHT22;2768;53.540;10.224;2022-11-20T15:13:25;4.90;97.10
5492;DHT22;2768;53.540;10.224;2022-11-20T15:19:22;5.00;99.10
5492;DHT22;2768;53.540;10.224;2022-11-20T15:25:17;5.00;99.90
5492;DHT22;2768;53.540;10.224;2022-11-20T15:31:11;5.00;99.10
5492;DHT22;2768;53.540;10.224;2022-11-20T15:37:07;5.00;99.10
5492;DHT22;2768;53.540;10.224;2022-11-20T15:43:01;5.00;99.10
5492;DHT22;2768;53.540;10.224;2022-11-20T15:49:04;5.00;99.10
5492;DHT22;2768;53.540;10.224;2022-11-20T15:55:00;5.00;99.10
5492;DHT22;2768;53.540;10.224;2022-11-20T16:01:00;5.00;99.10
5492;DHT22;2768;53.540;10.224;2022-11-20T16:06:54;5.00;99.10
5492;DHT22;2768;53.540;10.224;2022-11-20T16:12:50;5.00;99.10
5492;DHT22;2768;53.540;10.224;2022-11-20T16:19:01;5.00;99.10
5492;DHT22;2768;53.540;10.224;2022-11-20T16:24:54;5.00;99.10
5492;DHT22;2768;53.540;10.224;2022-11-20T16:30:49;4.90;98.50
5492;DHT22;2768;53.540;10.224;2022-11-20T16:36:43;4.90;98.90
5492;DHT22;2768;53.540;10.224;2022-11-20T16:42:37;4.90;98.70
5492;DHT22;2768;53.540;10.224;2022-11-20T16:48:31;5.00;99.10
5492;DHT22;2768;53.540;10.224;2022-11-20T16:54:25;4.90;99.00
5492;DHT22;2768;53.540;10.224;2022-11-20T17:00:18;4.90;99.00
5492;DHT22;2768;53.540;10.224;2022-11-20T17:06:15;4.90;98.80
5492;DHT22;2768;53.540;10.224;2022-11-20T17:12:08;4.90;99.00
5492;DHT22;2768;53.540;10.224;2022-11-20T17:18:02;4.90;99.00
5492;DHT22;2768;53.540;10.224;2022-11-20T17:23:59;4.90;99.00
5492;DHT22;2768;53.540;10.224;2022-11-20T17:29:54;5.00;99.10
5492;DHT22;2768;53.540;10.224;2022-11-20T17:35:48;5.00;99.10
5492;DHT22;2768;53.540;10.224;2022-11-20T17:41:44;4.90;99.00
5492;DHT22;2768;53.540;10.224;2022-11-20T17:47:57;4.90;99.00
5492;DHT22;2768;53.540;10.224;2022-11-20T17:53:52;4.90;99.00
5492;DHT22;2768;53.540;10.224;2022-11-20T17:59:47;4.90;99.00
5492;DHT22;2768;53.540;10.224;2022-11-20T18:05:40;4.90;99.10
5492;DHT22;2768;53.540;10.224;2022-11-20T18:11:35;4.90;99.00
5492;DHT22;2768;53.540;10.224;2022-11-20T18:17:31;4.90;98.60
5492;DHT22;2768;53.540;10.224;2022-11-20T18:23:24;4.80;98.10
5492;DHT22;2768;53.540;10.224;2022-11-20T18:29:18;4.90;98.80
5492;DHT22;2768;53.540;10.224;2022-11-20T18:35:13;4.70;95.10
5492;DHT22;2768;53.540;10.224;2022-11-20T18:41:07;4.70;95.50
5492;DHT22;2768;53.540;10.224;2022-11-20T18:47:22;4.70;96.70
5492;DHT22;2768;53.540;10.224;2022-11-20T18:53:17;4.70;98.20
5492;DHT22;2768;53.540;10.224;2022-11-20T18:59:11;4.60;96.20
5492;DHT22;2768;53.540;10.224;2022-11-20T19:05:05;4.40;94.10
5492;DHT22;2768;53.540;10.224;2022-11-20T19:11:06;4.30;96.20
5492;DHT22;2768;53.540;10.224;2022-11-20T19:16:59;4.20;98.10
5492;DHT22;2768;53.540;10.224;2022-11-20T19:22:53;4.20;99.90
5492;DHT22;2768;53.540;10.224;2022-11-20T19:28:48;4.10;99.90
5492;DHT22;2768;53.540;10.224;2022-11-20T19:34:42;3.90;99.90
5492;DHT22;2768;53.540;10.224;2022-11-20T19:40:35;4.00;99.90
5492;DHT22;2768;53.540;10.224;2022-11-20T19:46:32;4.10;99.90
5492;DHT22;2768;53.540;10.224;2022-11-20T19:52:25;4.10;99.90
5492;DHT22;2768;53.540;10.224;2022-11-20T19:58:18;4.10;99.90
5492;DHT22;2768;53.540;10.224;2022-11-20T20:04:13;4.20;99.90
5492;DHT22;2768;53.540;10.224;2022-11-20T20:10:07;4.20;99.90
5492;DHT22;2768;53.540;10.224;2022-11-20T20:16:00;4.30;99.90
5492;DHT22;2768;53.540;10.224;2022-11-20T20:21:55;4.30;99.90
5492;DHT22;2768;53.540;10.224;2022-11-20T20:27:48;4.40;99.90
5492;DHT22;2768;53.540;10.224;2022-11-20T20:33:42;4.40;99.90
5492;DHT22;2768;53.540;10.224;2022-11-20T20:39:36;4.40;99.90
5492;DHT22;2768;53.540;10.224;2022-11-20T20:45:30;4.40;99.90
5492;DHT22;2768;53.540;10.224;2022-11-20T20:51:23;4.40;99.90
5492;DHT22;2768;53.540;10.224;2022-11-20T20:57:18;4.40;99.90
5492;DHT22;2768;53.540;10.224;2022-11-20T21:03:11;4.40;99.90
5492;DHT22;2768;53.540;10.224;2022-11-20T21:09:05;4.30;99.90
5492;DHT22;2768;53.540;10.224;2022-11-20T21:15:00;4.30;99.90
5492;DHT22;2768;53.540;10.224;2022-11-20T21:20:54;4.30;99.90
5492;DHT22;2768;53.540;10.224;2022-11-20T21:27:05;4.30;99.90
5492;DHT22;2768;53.540;10.224;2022-11-20T21:33:00;4.30;99.90
5492;DHT22;2768;53.540;10.224;2022-11-20T21:38:54;4.30;99.90
5492;DHT22;2768;53.540;10.224;2022-11-20T21:44:48;4.30;99.90
5492;DHT22;2768;53.540;10.224;2022-11-20T21:50:43;4.30;99.90
5492;DHT22;2768;53.540;10.224;2022-11-20T21:56:37;4.30;99.90
5492;DHT22;2768;53.540;10.224;2022-11-20T22:02:30;4.30;99.90
5492;DHT22;2768;53.540;10.224;2022-11-20T22:08:25;4.30;99.90
5492;DHT22;2768;53.540;10.224;2022-11-20T22:14:19;4.20;99.90
5492;DHT22;2768;53.540;10.224;2022-11-20T22:20:13;4.20;99.90
5492;DHT22;2768;53.540;10.224;2022-11-20T22:26:10;4.20;99.90
5492;DHT22;2768;53.540;10.224;2022-11-20T22:32:04;4.20;99.90
5492;DHT22;2768;53.540;10.224;2022-11-20T22:37:57;4.10;99.90
5492;DHT22;2768;53.540;10.224;2022-11-20T22:43:55;4.10;99.90
5492;DHT22;2768;53.540;10.224;2022-11-20T22:49:48;4.00;99.90
5492;DHT22;2768;53.540;10.224;2022-11-20T22:55:42;4.00;99.40
5492;DHT22;2768;53.540;10.224;2022-11-20T23:01:37;4.00;98.70
5492;DHT22;2768;53.540;10.224;2022-11-20T23:07:30;4.00;99.60
5492;DHT22;2768;53.540;10.224;2022-11-20T23:13:32;3.90;98.70
5492;DHT22;2768;53.540;10.224;2022-11-20T23:19:27;3.90;98.50
5492;DHT22;2768;53.540;10.224;2022-11-20T23:25:20;3.90;98.60
5492;DHT22;2768;53.540;10.224;2022-11-20T23:31:15;3.90;98.60
5492;DHT22;2768;53.540;10.224;2022-11-20T23:37:10;3.90;99.60
5492;DHT22;2768;53.540;10.224;2022-11-20T23:43:03;3.90;97.40
5492;DHT22;2768;53.540;10.224;2022-11-20T23:49:09;3.80;95.70
5492;DHT22;2768;53.540;10.224;2022-11-20T23:55:05;3.80;94.60
